createdAt,value
2024-02-24T00:04:23.206Z,13.52
2024-02-24T00:09:28.302Z,13.38
2024-02-24T00:14:32.393Z,13.09
2024-02-24T00:19:36.064Z,12.97
2024-02-24T00:24:41.091Z,13.34
2024-02-24T00:29:44.882Z,13.58
2024-02-24T00:34:48.586Z,13.30
2024-02-24T00:39:53.950Z,13.41
2024-02-24T00:44:57.553Z,13.54
2024-02-24T00:50:01.298Z,13.53
2024-02-24T00:55:06.831Z,13.41
2024-02-24T01:00:11.906Z,13.37
2024-02-24T01:05:15.585Z,12.93
2024-02-24T01:10:20.663Z,12.81
2024-02-24T01:15:25.678Z,12.84
2024-02-24T01:20:30.444Z,12.90
2024-02-24T01:25:35.995Z,12.79
2024-02-24T01:30:39.612Z,12.70
2024-02-24T01:35:43.410Z,12.82
2024-02-24T01:40:48.436Z,12.82
2024-02-24T01:45:52.823Z,12.73
2024-02-24T01:50:56.799Z,12.73
2024-02-24T01:56:03.376Z,12.63
2024-02-24T02:01:08.271Z,12.55
2024-02-24T02:06:12.420Z,12.73
2024-02-24T02:11:17.822Z,12.71
2024-02-24T02:16:21.777Z,12.53
2024-02-24T02:21:26.400Z,12.51
2024-02-24T02:26:31.721Z,12.47
2024-02-24T02:31:35.588Z,12.40
2024-02-24T02:36:39.293Z,12.53
2024-02-24T02:41:44.495Z,12.48
2024-02-24T02:46:49.185Z,12.67
2024-02-24T02:51:52.836Z,12.61
2024-02-24T02:56:57.844Z,12.41
2024-02-24T03:02:01.450Z,12.38
2024-02-24T03:07:05.575Z,12.40
2024-02-24T03:12:10.975Z,12.35
2024-02-24T03:17:14.943Z,12.17
2024-02-24T03:22:18.738Z,12.35
2024-02-24T03:27:23.795Z,12.34
2024-02-24T03:32:28.072Z,12.23
2024-02-24T03:37:31.820Z,12.19
2024-02-24T03:42:37.287Z,12.03
2024-02-24T03:47:41.546Z,12.10
2024-02-24T03:52:47.087Z,12.12
2024-02-24T03:57:52.292Z,12.22
2024-02-24T04:02:55.857Z,12.13
2024-02-24T04:07:59.508Z,12.08
2024-02-24T04:13:04.771Z,12.10
2024-02-24T04:18:09.584Z,12.14
2024-02-24T04:23:13.871Z,12.06
2024-02-24T04:28:21.965Z,11.98
2024-02-24T04:33:26.524Z,11.85
2024-02-24T04:38:30.797Z,12.11
2024-02-24T04:43:37.224Z,12.24
2024-02-24T04:48:41.272Z,11.93
2024-02-24T04:53:45.360Z,12.11
2024-02-24T04:58:50.363Z,11.37
2024-02-24T05:03:55.054Z,12.03
2024-02-24T05:08:59.165Z,11.93
2024-02-24T05:14:04.565Z,12.05
2024-02-24T05:19:08.548Z,11.75
2024-02-24T05:24:12.301Z,12.12
2024-02-24T05:29:17.715Z,12.24
2024-02-24T05:34:21.598Z,12.26
2024-02-24T05:39:25.638Z,12.00
2024-02-24T05:44:31.103Z,12.15
2024-02-24T05:49:34.893Z,11.92
2024-02-24T05:54:41.290Z,11.96
2024-02-24T05:59:46.809Z,12.04
2024-02-24T06:04:50.497Z,11.92
2024-02-24T06:09:54.160Z,11.26
2024-02-24T06:14:59.162Z,11.58
2024-02-24T06:20:03.003Z,11.33
2024-02-24T06:25:07.425Z,11.20
2024-02-24T06:30:14.002Z,11.33
2024-02-24T06:35:17.708Z,11.29
2024-02-24T06:40:29.583Z,11.56
2024-02-24T06:45:42.194Z,11.64
2024-02-24T06:50:46.005Z,12.17
2024-02-24T06:55:49.665Z,11.21
2024-02-24T07:00:54.707Z,11.29
2024-02-24T07:05:58.472Z,11.04
2024-02-24T07:11:02.366Z,11.39
2024-02-24T07:16:08.588Z,11.84
2024-02-24T07:21:12.545Z,12.46
2024-02-24T07:26:16.425Z,12.96
2024-02-24T07:31:21.493Z,12.74
2024-02-24T07:36:26.268Z,13.24
2024-02-24T07:41:29.983Z,13.41
2024-02-24T07:46:35.153Z,13.15
2024-02-24T07:51:40.091Z,12.92
2024-02-24T07:56:43.893Z,12.75
2024-02-24T08:01:48.962Z,13.16
2024-02-24T08:06:52.641Z,12.65
2024-02-24T08:11:56.553Z,13.88
2024-02-24T08:17:01.769Z,13.72
2024-02-24T08:22:05.542Z,13.04
2024-02-24T08:27:09.331Z,14.29
2024-02-24T08:32:14.411Z,14.94
2024-02-24T08:37:18.010Z,14.98
2024-02-24T08:42:21.723Z,13.91
2024-02-24T08:47:26.873Z,14.55
2024-02-24T08:52:38.034Z,14.87
2024-02-24T08:57:46.766Z,14.59
2024-02-24T09:02:51.902Z,14.68
2024-02-24T09:07:55.617Z,14.19
2024-02-24T09:12:59.548Z,14.52
2024-02-24T09:18:08.241Z,14.44
2024-02-24T09:23:12.096Z,15.49
2024-02-24T09:28:15.736Z,15.61
2024-02-24T09:33:21.288Z,15.89
2024-02-24T09:38:25.430Z,16.01
2024-02-24T09:43:29.158Z,17.19
2024-02-24T09:48:34.479Z,17.41
2024-02-24T09:53:38.785Z,17.32
2024-02-24T09:58:43.013Z,17.40
2024-02-24T10:03:50.150Z,18.50
2024-02-24T10:08:54.466Z,18.78
2024-02-24T10:13:58.175Z,18.68
2024-02-24T10:19:05.820Z,17.82
2024-02-24T10:24:09.619Z,17.15
2024-02-24T10:29:13.631Z,16.68
2024-02-24T10:34:19.142Z,17.83
2024-02-24T10:39:22.997Z,17.31
2024-02-24T10:44:26.930Z,16.82
2024-02-24T10:49:32.393Z,18.26
2024-02-24T10:54:38.878Z,18.00
2024-02-24T10:59:42.674Z,18.10
2024-02-24T11:04:48.116Z,17.93
2024-02-24T11:09:54.404Z,18.25
2024-02-24T11:14:58.733Z,18.78
2024-02-24T11:20:04.608Z,18.13
2024-02-24T11:25:08.512Z,17.74
2024-02-24T11:30:44.637Z,16.59
2024-02-24T11:35:50.280Z,17.15
2024-02-24T11:40:54.344Z,18.12
2024-02-24T11:45:58.041Z,17.14
2024-02-24T11:51:03.020Z,17.10
2024-02-24T11:56:08.123Z,17.09
2024-02-24T12:01:14.686Z,17.28
2024-02-24T12:06:20.599Z,17.15
2024-02-24T12:11:24.456Z,16.86
2024-02-24T12:16:29.107Z,15.99
2024-02-24T12:21:34.183Z,16.73
2024-02-24T12:26:37.860Z,16.76
2024-02-24T12:31:42.443Z,16.43
2024-02-24T12:36:47.743Z,17.10
2024-02-24T12:41:52.237Z,16.47
2024-02-24T12:46:55.935Z,16.82
2024-02-24T12:52:00.996Z,16.47
2024-02-24T12:57:05.087Z,16.30
2024-02-24T13:02:08.905Z,16.06
2024-02-24T13:07:13.976Z,16.20
2024-02-24T13:12:17.839Z,16.92
2024-02-24T13:17:22.641Z,15.54
2024-02-24T13:22:27.851Z,16.69
2024-02-24T13:27:31.456Z,16.90
2024-02-24T13:32:35.500Z,16.34
2024-02-24T13:37:40.577Z,16.92
2024-02-24T13:42:44.252Z,16.60
2024-02-24T13:47:51.020Z,16.37
2024-02-24T13:52:58.927Z,16.03
2024-02-24T13:58:04.228Z,15.77
2024-02-24T14:03:09.844Z,16.16
2024-02-24T14:08:15.043Z,17.29
2024-02-24T14:13:18.743Z,16.05
2024-02-24T14:18:22.520Z,16.63
2024-02-24T14:23:27.740Z,16.16
2024-02-24T14:28:31.494Z,15.98
2024-02-24T14:33:35.481Z,14.54
2024-02-24T14:38:40.684Z,14.31
2024-02-24T14:43:44.566Z,14.52
2024-02-24T14:48:50.049Z,15.96
2024-02-24T14:53:55.303Z,15.47
2024-02-24T14:58:58.974Z,16.04
2024-02-24T15:04:02.688Z,15.07
2024-02-24T15:09:09.573Z,15.77
2024-02-24T15:14:13.369Z,15.04
2024-02-24T15:19:17.584Z,15.72
2024-02-24T15:24:22.658Z,15.70
2024-02-24T15:29:26.389Z,16.08
2024-02-24T15:34:30.257Z,16.34
2024-02-24T15:39:35.331Z,15.57
2024-02-24T15:44:38.978Z,16.03
2024-02-24T15:49:42.932Z,15.13
2024-02-24T15:54:48.179Z,15.57
2024-02-24T15:59:51.826Z,15.41
2024-02-24T16:04:55.869Z,14.57
2024-02-24T16:10:00.975Z,14.24
2024-02-24T16:15:04.941Z,13.94
2024-02-24T16:20:09.784Z,14.77
2024-02-24T16:25:17.229Z,14.90
2024-02-24T16:30:22.472Z,14.53
2024-02-24T16:35:27.765Z,15.36
2024-02-24T16:40:32.946Z,15.45
2024-02-24T16:45:37.218Z,15.22
2024-02-24T16:50:41.408Z,15.01
2024-02-24T16:55:47.842Z,15.32
2024-02-24T17:00:51.928Z,15.46
2024-02-24T17:05:55.968Z,15.64
2024-02-24T17:11:01.182Z,15.31
2024-02-24T17:16:06.302Z,15.49
2024-02-24T17:21:10.491Z,15.54
2024-02-24T17:26:18.488Z,15.46
2024-02-24T17:31:22.357Z,15.49
2024-02-24T17:36:26.039Z,15.45
2024-02-24T17:41:31.174Z,15.43
2024-02-24T17:46:37.957Z,15.36
2024-02-24T17:51:42.715Z,15.31
2024-02-24T17:56:47.851Z,15.21
2024-02-24T18:01:51.662Z,15.28
2024-02-24T18:06:55.518Z,15.31
2024-02-24T18:12:01.572Z,15.21
2024-02-24T18:17:05.533Z,15.25
2024-02-24T18:22:09.111Z,15.23
2024-02-24T18:27:14.346Z,14.86
2024-02-24T18:32:18.062Z,14.92
2024-02-24T18:37:21.890Z,14.80
2024-02-24T18:42:27.169Z,14.56
2024-02-24T18:47:30.847Z,14.61
2024-02-24T18:52:34.830Z,13.93
2024-02-24T18:57:39.844Z,14.17
2024-02-24T19:02:43.950Z,14.22
2024-02-24T19:07:51.164Z,14.18
2024-02-24T19:12:56.507Z,14.47
2024-02-24T19:18:00.293Z,14.38
2024-02-24T19:23:04.753Z,14.00
2024-02-24T19:28:09.721Z,14.24
2024-02-24T19:33:13.480Z,14.46
2024-02-24T19:38:17.256Z,14.28
2024-02-24T19:43:22.425Z,14.68
2024-02-24T19:48:26.258Z,14.21
2024-02-24T19:53:30.198Z,14.68
2024-02-24T19:58:39.444Z,14.62
2024-02-24T20:03:49.002Z,14.43
2024-02-24T20:08:53.014Z,14.12
2024-02-24T20:13:58.241Z,14.18
2024-02-24T20:19:01.984Z,14.30
2024-02-24T20:24:06.208Z,14.17
2024-02-24T20:29:11.223Z,14.12
2024-02-24T20:34:15.134Z,13.87
2024-02-24T20:39:18.837Z,13.98
2024-02-24T20:44:24.327Z,14.18
2024-02-24T20:49:28.656Z,13.89
2024-02-24T20:54:36.512Z,13.98
2024-02-24T20:59:41.551Z,14.03
2024-02-24T21:04:45.139Z,14.04
2024-02-24T21:09:48.956Z,13.94
2024-02-24T21:14:53.987Z,13.94
2024-02-24T21:20:04.364Z,13.85
2024-02-24T21:25:10.980Z,13.48
2024-02-24T21:30:16.706Z,13.57
2024-02-24T21:35:21.113Z,13.14
2024-02-24T21:40:24.835Z,13.67
2024-02-24T21:45:29.908Z,13.46
2024-02-24T21:50:33.739Z,13.67
2024-02-24T21:55:37.535Z,13.40
2024-02-24T22:00:42.510Z,13.26
2024-02-24T22:05:46.361Z,13.40
2024-02-24T22:10:50.167Z,13.38
2024-02-24T22:15:57.099Z,13.64
2024-02-24T22:21:01.314Z,13.52
2024-02-24T22:26:05.176Z,13.03
2024-02-24T22:31:10.221Z,13.21
2024-02-24T22:36:14.285Z,12.87
2024-02-24T22:41:19.034Z,13.32
2024-02-24T22:46:26.962Z,12.99
2024-02-24T22:51:30.918Z,13.18
2024-02-24T22:56:36.234Z,13.19
2024-02-24T23:01:45.624Z,13.34
2024-02-24T23:06:49.892Z,13.41
2024-02-24T23:11:53.707Z,13.11
2024-02-24T23:16:58.819Z,12.88
2024-02-24T23:22:02.539Z,12.95
2024-02-24T23:27:06.741Z,12.91
2024-02-24T23:32:12.140Z,12.96
2024-02-24T23:37:16.821Z,12.88
2024-02-24T23:42:20.870Z,12.52
2024-02-24T23:47:26.032Z,12.78
2024-02-24T23:52:29.785Z,12.72
2024-02-24T23:57:35.591Z,12.64
